Terminal Aerodrome Forecast
Issued by NWS Omaha/Valley, NE

Home | Current Version | Previous Version | Text Only | Print | Product List | Glossary Off
Versions: 1 2 3 4 5 6 7 8 9 10 11 12 13 14 15 16 17 18 19 20 21 22 23 24 25 26 27 28 29 30 31 32 33

820
FTUS43 KOAX 311515 AAA
TAFOFK
TAF AMD
KOFK 311515Z 3115/0112 34012KT P6SM SCT035 SCT250
     FM311900 32010KT P6SM BKN100
     FM010000 25005KT P6SM SCT250
     FM010500 VRB04KT P6SM BKN080=

USA.gov is the U.S. government's official web portal to all federal, state and local government web resources and services.